sensor_id;sensor_type;location;lat;lon;timestamp;noise_LAeq;noise_LA_min;noise_LA_max;noise_LA01;noise_LA95
79200;Laerm;68628;48.714;9.472;2023-04-01T00:00:57;39.57;34.56;53.86;;
79200;Laerm;68628;48.714;9.472;2023-04-01T00:03:24;40.35;34.84;54.57;;
79200;Laerm;68628;48.714;9.472;2023-04-01T00:05:51;40.72;36.58;50.68;;
79200;Laerm;68628;48.714;9.472;2023-04-01T00:08:18;48.27;36.22;64.68;;
79200;Laerm;68628;48.714;9.472;2023-04-01T00:10:44;42.27;35.63;51.56;;
79200;Laerm;68628;48.714;9.472;2023-04-01T00:13:10;41.53;35.26;59.20;;
79200;Laerm;68628;48.714;9.472;2023-04-01T00:15:36;51.26;38.07;71.25;;
79200;Laerm;68628;48.714;9.472;2023-04-01T00:18:05;43.86;37.78;56.63;;
79200;Laerm;68628;48.714;9.472;2023-04-01T00:20:32;43.59;37.30;55.62;;
79200;Laerm;68628;48.714;9.472;2023-04-01T00:22:58;43.43;38.38;50.75;;
79200;Laerm;68628;48.714;9.472;2023-04-01T00:25:24;44.41;36.56;53.35;;
79200;Laerm;68628;48.714;9.472;2023-04-01T00:27:50;40.03;36.90;49.42;;
79200;Laerm;68628;48.714;9.472;2023-04-01T00:30:16;43.89;37.95;53.59;;
79200;Laerm;68628;48.714;9.472;2023-04-01T00:32:43;49.24;39.27;65.43;;
79200;Laerm;68628;48.714;9.472;2023-04-01T00:35:09;43.40;34.72;61.52;;
79200;Laerm;68628;48.714;9.472;2023-04-01T00:37:37;39.87;34.25;47.20;;
79200;Laerm;68628;48.714;9.472;2023-04-01T00:40:07;39.29;35.33;54.22;;
79200;Laerm;68628;48.714;9.472;2023-04-01T00:42:33;50.20;35.91;69.53;;
79200;Laerm;68628;48.714;9.472;2023-04-01T00:45:31;45.66;33.09;66.94;;
79200;Laerm;68628;48.714;9.472;2023-04-01T00:48:06;39.52;34.63;49.85;;
79200;Laerm;68628;48.714;9.472;2023-04-01T00:50:35;47.69;33.81;68.51;;
79200;Laerm;68628;48.714;9.472;2023-04-01T00:53:03;38.86;33.43;47.27;;
79200;Laerm;68628;48.714;9.472;2023-04-01T00:55:35;40.52;36.37;46.49;;
79200;Laerm;68628;48.714;9.472;2023-04-01T00:58:09;41.75;36.42;54.13;;
79200;Laerm;68628;48.714;9.472;2023-04-01T01:00:41;49.33;35.93;67.48;;
79200;Laerm;68628;48.714;9.472;2023-04-01T01:03:09;51.95;34.55;77.56;;
79200;Laerm;68628;48.714;9.472;2023-04-01T01:05:55;60.16;35.86;86.22;;
79200;Laerm;68628;48.714;9.472;2023-04-01T01:14:38;45.88;34.04;66.31;;
79200;Laerm;68628;48.714;9.472;2023-04-01T01:26:59;53.13;36.12;71.14;;
79200;Laerm;68628;48.714;9.472;2023-04-01T01:35:33;40.20;36.37;49.83;;
79200;Laerm;68628;48.714;9.472;2023-04-01T01:38:07;52.49;34.89;71.97;;
79200;Laerm;68628;48.714;9.472;2023-04-01T01:40:39;44.51;37.25;64.87;;
79200;Laerm;68628;48.714;9.472;2023-04-01T01:43:14;55.50;36.77;74.26;;
79200;Laerm;68628;48.714;9.472;2023-04-01T01:45:50;61.29;35.22;80.72;;
79200;Laerm;68628;48.714;9.472;2023-04-01T01:48:19;57.34;36.89;79.71;;
79200;Laerm;68628;48.714;9.472;2023-04-01T01:50:47;55.79;34.90;75.48;;
79200;Laerm;68628;48.714;9.472;2023-04-01T01:53:14;44.54;35.15;61.99;;
79200;Laerm;68628;48.714;9.472;2023-04-01T01:55:43;45.59;37.25;63.12;;
79200;Laerm;68628;48.714;9.472;2023-04-01T01:58:23;43.75;35.37;58.84;;
79200;Laerm;68628;48.714;9.472;2023-04-01T02:01:00;43.90;36.06;60.82;;
79200;Laerm;68628;48.714;9.472;2023-04-01T02:03:33;46.32;38.12;68.30;;
79200;Laerm;68628;48.714;9.472;2023-04-01T02:06:06;56.03;35.29;77.53;;
79200;Laerm;68628;48.714;9.472;2023-04-01T02:09:03;47.11;37.84;63.95;;
79200;Laerm;68628;48.714;9.472;2023-04-01T02:11:52;54.04;36.01;73.63;;
79200;Laerm;68628;48.714;9.472;2023-04-01T02:14:24;50.42;37.46;75.98;;
79200;Laerm;68628;48.714;9.472;2023-04-01T02:17:11;40.96;37.12;53.01;;
79200;Laerm;68628;48.714;9.472;2023-04-01T02:19:48;55.96;36.11;79.26;;
79200;Laerm;68628;48.714;9.472;2023-04-01T02:22:23;50.38;34.53;71.41;;
79200;Laerm;68628;48.714;9.472;2023-04-01T02:24:54;40.03;36.26;47.66;;
79200;Laerm;68628;48.714;9.472;2023-04-01T02:27:24;59.41;34.92;80.71;;
79200;Laerm;68628;48.714;9.472;2023-04-01T02:29:51;49.63;36.40;71.75;;
79200;Laerm;68628;48.714;9.472;2023-04-01T02:32:20;43.89;35.68;64.78;;
79200;Laerm;68628;48.714;9.472;2023-04-01T02:34:47;45.45;36.59;62.18;;
79200;Laerm;68628;48.714;9.472;2023-04-01T02:37:14;52.96;37.37;73.69;;
79200;Laerm;68628;48.714;9.472;2023-04-01T02:39:40;44.76;36.80;61.09;;
79200;Laerm;68628;48.714;9.472;2023-04-01T02:42:08;50.59;35.99;69.02;;
79200;Laerm;68628;48.714;9.472;2023-04-01T02:44:34;43.95;35.63;61.02;;
79200;Laerm;68628;48.714;9.472;2023-04-01T02:47:00;45.77;35.38;69.39;;
79200;Laerm;68628;48.714;9.472;2023-04-01T02:49:26;46.52;37.66;62.07;;
79200;Laerm;68628;48.714;9.472;2023-04-01T02:51:52;47.13;38.14;65.85;;
79200;Laerm;68628;48.714;9.472;2023-04-01T02:54:18;48.61;36.30;64.91;;
79200;Laerm;68628;48.714;9.472;2023-04-01T02:56:44;48.48;36.03;67.68;;
79200;Laerm;68628;48.714;9.472;2023-04-01T02:59:11;54.53;34.91;73.90;;
79200;Laerm;68628;48.714;9.472;2023-04-01T03:01:37;52.61;35.04;71.73;;
79200;Laerm;68628;48.714;9.472;2023-04-01T03:04:04;58.31;35.16;79.10;;
79200;Laerm;68628;48.714;9.472;2023-04-01T03:06:30;50.54;38.14;69.73;;
79200;Laerm;68628;48.714;9.472;2023-04-01T03:08:55;50.07;36.93;69.28;;
79200;Laerm;68628;48.714;9.472;2023-04-01T03:11:21;57.74;36.34;77.24;;
79200;Laerm;68628;48.714;9.472;2023-04-01T03:13:47;44.56;36.66;64.61;;
79200;Laerm;68628;48.714;9.472;2023-04-01T03:16:13;47.52;36.04;67.09;;
79200;Laerm;68628;48.714;9.472;2023-04-01T03:18:38;54.40;35.67;76.14;;
79200;Laerm;68628;48.714;9.472;2023-04-01T03:21:22;41.05;35.60;58.89;;
79200;Laerm;68628;48.714;9.472;2023-04-01T03:23:48;51.57;37.04;66.95;;
79200;Laerm;68628;48.714;9.472;2023-04-01T03:26:15;60.42;39.06;79.76;;
79200;Laerm;68628;48.714;9.472;2023-04-01T03:28:41;44.23;37.64;62.74;;
79200;Laerm;68628;48.714;9.472;2023-04-01T03:31:06;54.31;37.13;71.61;;
79200;Laerm;68628;48.714;9.472;2023-04-01T03:33:32;42.45;36.09;51.45;;
79200;Laerm;68628;48.714;9.472;2023-04-01T03:35:58;49.58;38.28;69.16;;
79200;Laerm;68628;48.714;9.472;2023-04-01T03:38:24;45.48;37.84;54.63;;
79200;Laerm;68628;48.714;9.472;2023-04-01T03:40:50;45.67;37.73;61.30;;
79200;Laerm;68628;48.714;9.472;2023-04-01T03:43:16;48.25;38.70;66.66;;
79200;Laerm;68628;48.714;9.472;2023-04-01T03:45:47;46.33;38.65;59.95;;
79200;Laerm;68628;48.714;9.472;2023-04-01T03:48:14;50.76;38.58;70.40;;
79200;Laerm;68628;48.714;9.472;2023-04-01T03:50:40;51.59;38.82;67.90;;
79200;Laerm;68628;48.714;9.472;2023-04-01T03:53:07;47.57;38.51;58.05;;
79200;Laerm;68628;48.714;9.472;2023-04-01T03:55:33;48.52;39.47;64.88;;
79200;Laerm;68628;48.714;9.472;2023-04-01T03:57:59;47.74;37.66;61.66;;
79200;Laerm;68628;48.714;9.472;2023-04-01T04:00:28;54.06;38.23;72.65;;
79200;Laerm;68628;48.714;9.472;2023-04-01T04:02:54;51.64;38.71;66.18;;
79200;Laerm;68628;48.714;9.472;2023-04-01T04:05:21;47.54;38.97;58.40;;
79200;Laerm;68628;48.714;9.472;2023-04-01T04:07:46;53.58;41.43;74.31;;
79200;Laerm;68628;48.714;9.472;2023-04-01T04:10:12;51.91;39.13;64.91;;
79200;Laerm;68628;48.714;9.472;2023-04-01T04:12:38;56.05;39.00;78.52;;
79200;Laerm;68628;48.714;9.472;2023-04-01T04:15:04;51.78;39.59;63.48;;
79200;Laerm;68628;48.714;9.472;2023-04-01T04:17:29;50.24;40.51;62.13;;
79200;Laerm;68628;48.714;9.472;2023-04-01T04:19:55;55.38;40.69;70.27;;
79200;Laerm;68628;48.714;9.472;2023-04-01T04:22:20;56.92;41.78;71.50;;
79200;Laerm;68628;48.714;9.472;2023-04-01T04:24:46;56.85;42.19;68.56;;
79200;Laerm;68628;48.714;9.472;2023-04-01T04:27:12;58.29;42.08;76.70;;
79200;Laerm;68628;48.714;9.472;2023-04-01T04:29:37;55.36;41.88;67.69;;
79200;Laerm;68628;48.714;9.472;2023-04-01T04:32:03;52.89;41.37;62.39;;
79200;Laerm;68628;48.714;9.472;2023-04-01T04:34:28;52.38;41.05;63.25;;
79200;Laerm;68628;48.714;9.472;2023-04-01T04:36:54;52.67;40.81;62.07;;
79200;Laerm;68628;48.714;9.472;2023-04-01T04:39:20;56.88;40.72;73.20;;
79200;Laerm;68628;48.714;9.472;2023-04-01T04:41:45;50.86;41.20;69.34;;
79200;Laerm;68628;48.714;9.472;2023-04-01T04:44:11;46.03;40.13;60.02;;
79200;Laerm;68628;48.714;9.472;2023-04-01T04:46:36;46.46;39.00;56.65;;
79200;Laerm;68628;48.714;9.472;2023-04-01T04:49:05;49.12;40.58;64.92;;
79200;Laerm;68628;48.714;9.472;2023-04-01T04:51:30;47.48;42.01;62.83;;
79200;Laerm;68628;48.714;9.472;2023-04-01T04:54:00;47.03;40.56;57.30;;
79200;Laerm;68628;48.714;9.472;2023-04-01T04:56:25;45.92;42.17;53.99;;
79200;Laerm;68628;48.714;9.472;2023-04-01T04:58:52;48.37;39.74;66.33;;
79200;Laerm;68628;48.714;9.472;2023-04-01T05:01:18;47.15;40.75;57.63;;
79200;Laerm;68628;48.714;9.472;2023-04-01T05:03:45;48.29;42.57;59.16;;
79200;Laerm;68628;48.714;9.472;2023-04-01T05:06:14;45.90;41.13;54.37;;
79200;Laerm;68628;48.714;9.472;2023-04-01T05:08:42;45.12;41.38;53.14;;
79200;Laerm;68628;48.714;9.472;2023-04-01T05:11:18;46.13;40.46;58.33;;
79200;Laerm;68628;48.714;9.472;2023-04-01T05:13:45;49.89;42.97;68.95;;
79200;Laerm;68628;48.714;9.472;2023-04-01T05:16:14;55.78;42.16;68.44;;
79200;Laerm;68628;48.714;9.472;2023-04-01T05:18:40;52.95;41.72;66.83;;
79200;Laerm;68628;48.714;9.472;2023-04-01T05:21:12;52.72;42.84;64.22;;
79200;Laerm;68628;48.714;9.472;2023-04-01T05:23:38;48.03;43.34;56.79;;
79200;Laerm;68628;48.714;9.472;2023-04-01T05:26:12;49.85;42.34;63.92;;
79200;Laerm;68628;48.714;9.472;2023-04-01T05:28:39;47.19;40.63;60.61;;
79200;Laerm;68628;48.714;9.472;2023-04-01T05:31:07;46.62;40.69;53.74;;
79200;Laerm;68628;48.714;9.472;2023-04-01T05:33:33;54.76;40.81;73.15;;
79200;Laerm;68628;48.714;9.472;2023-04-01T05:36:08;50.00;42.66;61.18;;
79200;Laerm;68628;48.714;9.472;2023-04-01T05:38:33;51.49;42.99;65.84;;
79200;Laerm;68628;48.714;9.472;2023-04-01T05:41:01;55.98;43.09;72.70;;
79200;Laerm;68628;48.714;9.472;2023-04-01T05:43:27;51.28;42.79;66.40;;
79200;Laerm;68628;48.714;9.472;2023-04-01T05:45:53;51.20;42.59;67.66;;
79200;Laerm;68628;48.714;9.472;2023-04-01T05:48:18;49.83;43.18;67.70;;
79200;Laerm;68628;48.714;9.472;2023-04-01T05:50:44;48.75;41.51;61.33;;
79200;Laerm;68628;48.714;9.472;2023-04-01T05:53:10;53.85;42.18;72.75;;
79200;Laerm;68628;48.714;9.472;2023-04-01T05:55:36;57.37;42.72;74.66;;
79200;Laerm;68628;48.714;9.472;2023-04-01T05:58:02;48.70;40.80;67.17;;
79200;Laerm;68628;48.714;9.472;2023-04-01T06:00:27;49.39;40.77;67.15;;
79200;Laerm;68628;48.714;9.472;2023-04-01T06:02:53;50.75;41.22;63.60;;
79200;Laerm;68628;48.714;9.472;2023-04-01T06:05:23;45.58;41.56;56.85;;
79200;Laerm;68628;48.714;9.472;2023-04-01T06:07:58;48.13;42.99;59.64;;
79200;Laerm;68628;48.714;9.472;2023-04-01T06:14:11;49.41;41.66;57.93;;
79200;Laerm;68628;48.714;9.472;2023-04-01T06:20:02;47.64;41.54;59.19;;
79200;Laerm;68628;48.714;9.472;2023-04-01T06:28:47;61.20;42.36;83.84;;
79200;Laerm;68628;48.714;9.472;2023-04-01T06:37:15;52.94;42.35;73.89;;
79200;Laerm;68628;48.714;9.472;2023-04-01T06:46:00;60.33;42.80;80.08;;
79200;Laerm;68628;48.714;9.472;2023-04-01T06:49:11;63.93;44.50;84.39;;
79200;Laerm;68628;48.714;9.472;2023-04-01T06:54:42;54.82;43.74;71.49;;
79200;Laerm;68628;48.714;9.472;2023-04-01T07:00:00;51.92;43.06;71.43;;
79200;Laerm;68628;48.714;9.472;2023-04-01T07:02:48;47.44;43.49;57.91;;
79200;Laerm;68628;48.714;9.472;2023-04-01T07:05:22;57.91;43.97;74.24;;
79200;Laerm;68628;48.714;9.472;2023-04-01T07:07:54;60.43;43.75;84.22;;
79200;Laerm;68628;48.714;9.472;2023-04-01T07:10:46;49.55;43.90;62.26;;
79200;Laerm;68628;48.714;9.472;2023-04-01T07:13:41;51.44;43.78;65.70;;
79200;Laerm;68628;48.714;9.472;2023-04-01T07:25:14;63.36;43.30;86.13;;
79200;Laerm;68628;48.714;9.472;2023-04-01T07:27:42;56.14;43.65;74.74;;
79200;Laerm;68628;48.714;9.472;2023-04-01T07:30:53;53.31;43.03;70.76;;
79200;Laerm;68628;48.714;9.472;2023-04-01T07:36:42;59.45;44.77;77.97;;
79200;Laerm;68628;48.714;9.472;2023-04-01T07:39:40;51.27;44.95;69.54;;
79200;Laerm;68628;48.714;9.472;2023-04-01T07:42:44;59.72;44.03;77.73;;
79200;Laerm;68628;48.714;9.472;2023-04-01T07:51:21;69.26;44.10;89.56;;
79200;Laerm;68628;48.714;9.472;2023-04-01T07:54:40;61.91;45.07;80.73;;
79200;Laerm;68628;48.714;9.472;2023-04-01T07:57:30;53.12;45.69;69.84;;
79200;Laerm;68628;48.714;9.472;2023-04-01T08:00:24;59.61;45.60;76.22;;
79200;Laerm;68628;48.714;9.472;2023-04-01T08:03:34;52.96;45.87;71.63;;
79200;Laerm;68628;48.714;9.472;2023-04-01T08:17:39;54.41;46.12;73.91;;
79200;Laerm;68628;48.714;9.472;2023-04-01T08:22:56;69.65;45.11;90.04;;
79200;Laerm;68628;48.714;9.472;2023-04-01T08:25:28;57.64;44.33;75.90;;
79200;Laerm;68628;48.714;9.472;2023-04-01T08:28:33;67.01;45.49;89.17;;
79200;Laerm;68628;48.714;9.472;2023-04-01T08:31:09;63.68;47.03;84.96;;
79200;Laerm;68628;48.714;9.472;2023-04-01T08:33:41;50.56;44.36;69.02;;
79200;Laerm;68628;48.714;9.472;2023-04-01T08:36:20;60.18;45.21;76.98;;
79200;Laerm;68628;48.714;9.472;2023-04-01T08:39:01;71.18;46.70;92.60;;
79200;Laerm;68628;48.714;9.472;2023-04-01T08:50:01;64.94;45.05;82.64;;
79200;Laerm;68628;48.714;9.472;2023-04-01T08:52:41;54.39;45.08;71.12;;
79200;Laerm;68628;48.714;9.472;2023-04-01T08:58:07;66.60;44.57;84.87;;
79200;Laerm;68628;48.714;9.472;2023-04-01T09:01:11;67.32;46.24;86.87;;
79200;Laerm;68628;48.714;9.472;2023-04-01T09:13:46;52.82;45.21;70.05;;
79200;Laerm;68628;48.714;9.472;2023-04-01T09:19:21;64.37;45.39;83.91;;
79200;Laerm;68628;48.714;9.472;2023-04-01T09:22:33;58.48;45.59;79.88;;
79200;Laerm;68628;48.714;9.472;2023-04-01T09:25:26;57.17;44.69;74.11;;
79200;Laerm;68628;48.714;9.472;2023-04-01T09:28:20;57.75;44.40;77.92;;
79200;Laerm;68628;48.714;9.472;2023-04-01T09:31:20;59.95;45.54;77.96;;
79200;Laerm;68628;48.714;9.472;2023-04-01T09:34:09;55.00;46.63;65.69;;
79200;Laerm;68628;48.714;9.472;2023-04-01T09:36:48;63.76;44.85;81.36;;
79200;Laerm;68628;48.714;9.472;2023-04-01T09:39:53;57.18;45.07;74.65;;
79200;Laerm;68628;48.714;9.472;2023-04-01T09:46:03;67.55;45.60;88.15;;
79200;Laerm;68628;48.714;9.472;2023-04-01T10:10:14;66.84;45.67;88.57;;
79200;Laerm;68628;48.714;9.472;2023-04-01T10:48:22;60.00;45.99;82.90;;
79200;Laerm;68628;48.714;9.472;2023-04-01T10:51:16;56.97;46.21;75.15;;
79200;Laerm;68628;48.714;9.472;2023-04-01T11:03:13;57.98;46.20;76.27;;
79200;Laerm;68628;48.714;9.472;2023-04-01T11:21:59;63.06;44.56;79.06;;
79200;Laerm;68628;48.714;9.472;2023-04-01T11:34:05;56.97;45.23;78.04;;
79200;Laerm;68628;48.714;9.472;2023-04-01T11:42:42;55.09;44.69;71.65;;
79200;Laerm;68628;48.714;9.472;2023-04-01T11:45:28;65.74;46.25;84.65;;
79200;Laerm;68628;48.714;9.472;2023-04-01T11:48:23;63.19;46.34;82.99;;
79200;Laerm;68628;48.714;9.472;2023-04-01T11:54:20;65.78;45.64;92.23;;
79200;Laerm;68628;48.714;9.472;2023-04-01T12:15:02;52.42;45.68;62.77;;
79200;Laerm;68628;48.714;9.472;2023-04-01T12:20:51;64.99;44.97;84.12;;
79200;Laerm;68628;48.714;9.472;2023-04-01T12:23:49;59.14;46.06;80.70;;
79200;Laerm;68628;48.714;9.472;2023-04-01T12:32:52;63.30;46.28;81.93;;
79200;Laerm;68628;48.714;9.472;2023-04-01T12:47:02;66.31;45.76;86.06;;
79200;Laerm;68628;48.714;9.472;2023-04-01T12:55:46;68.11;45.87;88.89;;
79200;Laerm;68628;48.714;9.472;2023-04-01T12:58:54;68.60;44.03;89.43;;
79200;Laerm;68628;48.714;9.472;2023-04-01T13:13:38;64.52;46.18;83.13;;
79200;Laerm;68628;48.714;9.472;2023-04-01T13:19:19;64.13;46.65;85.31;;
79200;Laerm;68628;48.714;9.472;2023-04-01T13:22:25;67.41;44.48;85.18;;
79200;Laerm;68628;48.714;9.472;2023-04-01T13:28:33;69.71;46.27;91.97;;
79200;Laerm;68628;48.714;9.472;2023-04-01T13:40:10;58.31;45.07;79.58;;
79200;Laerm;68628;48.714;9.472;2023-04-01T13:46:04;62.55;44.88;86.00;;
79200;Laerm;68628;48.714;9.472;2023-04-01T13:51:50;59.36;43.19;78.98;;
79200;Laerm;68628;48.714;9.472;2023-04-01T13:54:57;55.68;44.69;72.60;;
79200;Laerm;68628;48.714;9.472;2023-04-01T13:58:10;65.22;46.27;82.22;;
79200;Laerm;68628;48.714;9.472;2023-04-01T14:12:35;57.89;44.91;76.98;;
79200;Laerm;68628;48.714;9.472;2023-04-01T14:15:33;61.74;44.59;82.23;;
79200;Laerm;68628;48.714;9.472;2023-04-01T14:21:19;64.19;43.60;88.11;;
79200;Laerm;68628;48.714;9.472;2023-04-01T14:35:04;64.43;44.54;81.86;;
79200;Laerm;68628;48.714;9.472;2023-04-01T14:38:35;59.48;44.80;78.68;;
79200;Laerm;68628;48.714;9.472;2023-04-01T14:41:33;69.16;45.70;88.75;;
79200;Laerm;68628;48.714;9.472;2023-04-01T14:44:15;63.63;45.36;85.40;;
79200;Laerm;68628;48.714;9.472;2023-04-01T14:47:11;58.95;45.19;78.70;;
79200;Laerm;68628;48.714;9.472;2023-04-01T14:49:56;61.29;46.02;86.11;;
79200;Laerm;68628;48.714;9.472;2023-04-01T14:52:33;68.67;46.63;87.40;;
79200;Laerm;68628;48.714;9.472;2023-04-01T14:55:20;59.04;42.88;82.43;;
79200;Laerm;68628;48.714;9.472;2023-04-01T14:58:14;53.37;43.14;75.30;;
79200;Laerm;68628;48.714;9.472;2023-04-01T15:04:24;56.23;43.24;79.97;;
79200;Laerm;68628;48.714;9.472;2023-04-01T15:10:57;50.42;43.16;66.53;;
79200;Laerm;68628;48.714;9.472;2023-04-01T15:17:05;49.54;44.24;60.39;;
79200;Laerm;68628;48.714;9.472;2023-04-01T15:20:21;54.74;43.25;73.27;;
79200;Laerm;68628;48.714;9.472;2023-04-01T15:29:37;52.68;44.75;72.84;;
79200;Laerm;68628;48.714;9.472;2023-04-01T15:35:49;52.90;41.90;72.91;;
79200;Laerm;68628;48.714;9.472;2023-04-01T15:38:49;53.13;44.26;73.39;;
79200;Laerm;68628;48.714;9.472;2023-04-01T15:48:10;65.52;44.19;86.62;;
79200;Laerm;68628;48.714;9.472;2023-04-01T15:51:14;62.72;44.58;79.63;;
79200;Laerm;68628;48.714;9.472;2023-04-01T15:53:54;57.41;43.40;73.10;;
79200;Laerm;68628;48.714;9.472;2023-04-01T15:56:44;53.62;43.56;68.88;;
79200;Laerm;68628;48.714;9.472;2023-04-01T16:16:51;58.32;43.24;78.84;;
79200;Laerm;68628;48.714;9.472;2023-04-01T16:22:07;56.70;43.35;75.23;;
79200;Laerm;68628;48.714;9.472;2023-04-01T16:24:45;50.65;43.32;59.97;;
79200;Laerm;68628;48.714;9.472;2023-04-01T16:30:38;47.86;43.46;55.12;;
79200;Laerm;68628;48.714;9.472;2023-04-01T16:33:34;51.53;42.83;70.10;;
79200;Laerm;68628;48.714;9.472;2023-04-01T16:36:26;49.39;44.33;60.48;;
79200;Laerm;68628;48.714;9.472;2023-04-01T16:47:48;56.06;41.93;77.47;;
79200;Laerm;68628;48.714;9.472;2023-04-01T16:50:55;49.06;42.13;60.96;;
79200;Laerm;68628;48.714;9.472;2023-04-01T16:53:55;51.93;41.97;67.71;;
79200;Laerm;68628;48.714;9.472;2023-04-01T16:56:42;47.04;40.69;56.27;;
79200;Laerm;68628;48.714;9.472;2023-04-01T17:05:09;50.47;44.02;58.84;;
79200;Laerm;68628;48.714;9.472;2023-04-01T17:08:28;49.31;41.81;59.51;;
79200;Laerm;68628;48.714;9.472;2023-04-01T17:11:19;48.11;41.85;57.13;;
79200;Laerm;68628;48.714;9.472;2023-04-01T17:22:59;48.03;42.15;60.19;;
79200;Laerm;68628;48.714;9.472;2023-04-01T17:28:49;48.19;42.88;57.88;;
79200;Laerm;68628;48.714;9.472;2023-04-01T17:32:01;48.22;42.73;56.93;;
79200;Laerm;68628;48.714;9.472;2023-04-01T17:35:08;48.37;42.21;58.26;;
79200;Laerm;68628;48.714;9.472;2023-04-01T17:43:25;47.61;42.34;57.28;;
79200;Laerm;68628;48.714;9.472;2023-04-01T17:54:56;47.27;41.41;53.76;;
79200;Laerm;68628;48.714;9.472;2023-04-01T17:58:14;48.56;41.50;69.30;;
79200;Laerm;68628;48.714;9.472;2023-04-01T18:01:39;49.56;41.69;55.57;;
79200;Laerm;68628;48.714;9.472;2023-04-01T18:04:15;49.53;41.44;59.71;;
79200;Laerm;68628;48.714;9.472;2023-04-01T18:07:08;46.70;41.35;57.00;;
79200;Laerm;68628;48.714;9.472;2023-04-01T18:16:13;47.28;40.10;61.64;;
79200;Laerm;68628;48.714;9.472;2023-04-01T18:19:13;44.88;39.32;53.88;;
79200;Laerm;68628;48.714;9.472;2023-04-01T18:22:15;44.69;39.71;55.78;;
79200;Laerm;68628;48.714;9.472;2023-04-01T18:25:39;44.39;39.49;57.70;;
79200;Laerm;68628;48.714;9.472;2023-04-01T18:36:56;45.98;41.13;56.40;;
79200;Laerm;68628;48.714;9.472;2023-04-01T18:39:55;47.67;39.13;56.97;;
79200;Laerm;68628;48.714;9.472;2023-04-01T18:42:54;45.48;40.49;56.40;;
79200;Laerm;68628;48.714;9.472;2023-04-01T18:45:37;47.54;40.86;57.09;;
79200;Laerm;68628;48.714;9.472;2023-04-01T18:48:49;46.06;39.71;59.11;;
79200;Laerm;68628;48.714;9.472;2023-04-01T18:51:21;45.52;40.37;55.66;;
79200;Laerm;68628;48.714;9.472;2023-04-01T18:54:16;46.71;41.30;54.89;;
79200;Laerm;68628;48.714;9.472;2023-04-01T18:56:46;51.50;41.41;69.20;;
79200;Laerm;68628;48.714;9.472;2023-04-01T18:59:25;48.75;41.30;71.81;;
79200;Laerm;68628;48.714;9.472;2023-04-01T19:02:25;47.09;40.64;60.36;;
79200;Laerm;68628;48.714;9.472;2023-04-01T19:05:07;44.70;40.45;62.99;;
79200;Laerm;68628;48.714;9.472;2023-04-01T19:07:48;50.62;40.63;60.51;;
79200;Laerm;68628;48.714;9.472;2023-04-01T19:10:38;47.53;40.82;56.68;;
79200;Laerm;68628;48.714;9.472;2023-04-01T19:19:47;46.57;38.64;56.25;;
79200;Laerm;68628;48.714;9.472;2023-04-01T19:23:09;46.19;40.51;58.87;;
79200;Laerm;68628;48.714;9.472;2023-04-01T19:31:43;44.77;40.25;55.27;;
79200;Laerm;68628;48.714;9.472;2023-04-01T19:34:54;46.10;39.29;56.15;;
79200;Laerm;68628;48.714;9.472;2023-04-01T19:41:38;43.03;39.61;48.94;;
79200;Laerm;68628;48.714;9.472;2023-04-01T19:44:28;44.72;39.77;61.06;;
79200;Laerm;68628;48.714;9.472;2023-04-01T19:47:39;43.90;38.56;56.72;;
79200;Laerm;68628;48.714;9.472;2023-04-01T19:50:21;46.04;39.76;56.47;;
79200;Laerm;68628;48.714;9.472;2023-04-01T19:52:58;45.31;39.37;56.20;;
79200;Laerm;68628;48.714;9.472;2023-04-01T19:55:41;46.76;39.47;60.54;;
79200;Laerm;68628;48.714;9.472;2023-04-01T19:58:33;44.30;39.87;52.04;;
79200;Laerm;68628;48.714;9.472;2023-04-01T20:01:09;46.77;40.26;55.82;;
79200;Laerm;68628;48.714;9.472;2023-04-01T20:04:04;44.24;39.76;53.32;;
79200;Laerm;68628;48.714;9.472;2023-04-01T20:06:51;44.48;41.13;52.68;;
79200;Laerm;68628;48.714;9.472;2023-04-01T20:14:55;46.97;39.19;55.09;;
79200;Laerm;68628;48.714;9.472;2023-04-01T20:20:21;46.85;38.93;57.66;;
79200;Laerm;68628;48.714;9.472;2023-04-01T20:23:33;44.07;37.33;53.02;;
79200;Laerm;68628;48.714;9.472;2023-04-01T20:26:12;43.91;37.41;53.97;;
79200;Laerm;68628;48.714;9.472;2023-04-01T20:32:33;44.52;37.38;56.38;;
79200;Laerm;68628;48.714;9.472;2023-04-01T20:38:10;44.38;37.67;58.60;;
79200;Laerm;68628;48.714;9.472;2023-04-01T20:40:51;45.10;38.50;55.05;;
79200;Laerm;68628;48.714;9.472;2023-04-01T20:43:52;45.42;37.80;59.02;;
79200;Laerm;68628;48.714;9.472;2023-04-01T20:46:48;44.91;38.55;55.73;;
79200;Laerm;68628;48.714;9.472;2023-04-01T20:58:00;43.56;40.24;53.18;;
79200;Laerm;68628;48.714;9.472;2023-04-01T21:00:57;45.93;39.97;54.63;;
79200;Laerm;68628;48.714;9.472;2023-04-01T21:08:59;48.40;37.19;65.07;;
79200;Laerm;68628;48.714;9.472;2023-04-01T21:11:51;41.99;38.83;48.24;;
79200;Laerm;68628;48.714;9.472;2023-04-01T21:18:04;44.09;39.62;51.56;;
79200;Laerm;68628;48.714;9.472;2023-04-01T21:21:19;42.48;39.94;48.60;;
79200;Laerm;68628;48.714;9.472;2023-04-01T21:43:08;44.70;38.21;54.70;;
79200;Laerm;68628;48.714;9.472;2023-04-01T21:49:13;43.88;39.22;53.61;;
79200;Laerm;68628;48.714;9.472;2023-04-01T22:10:09;43.08;39.71;50.15;;
79200;Laerm;68628;48.714;9.472;2023-04-01T22:18:21;44.65;39.84;52.62;;
79200;Laerm;68628;48.714;9.472;2023-04-01T22:26:53;44.53;40.18;53.24;;
79200;Laerm;68628;48.714;9.472;2023-04-01T22:30:07;43.97;39.54;55.10;;
79200;Laerm;68628;48.714;9.472;2023-04-01T22:38:28;42.00;37.71;60.84;;
79200;Laerm;68628;48.714;9.472;2023-04-01T22:43:47;43.72;37.57;55.98;;
79200;Laerm;68628;48.714;9.472;2023-04-01T22:49:22;44.18;38.76;54.40;;
79200;Laerm;68628;48.714;9.472;2023-04-01T22:54:42;42.29;38.91;51.70;;
79200;Laerm;68628;48.714;9.472;2023-04-01T23:00:17;42.67;36.36;61.02;;
79200;Laerm;68628;48.714;9.472;2023-04-01T23:03:22;44.11;36.88;54.44;;
79200;Laerm;68628;48.714;9.472;2023-04-01T23:05:59;38.59;35.05;44.59;;
79200;Laerm;68628;48.714;9.472;2023-04-01T23:17:15;42.48;38.03;50.29;;
79200;Laerm;68628;48.714;9.472;2023-04-01T23:29:18;42.35;36.92;57.66;;
79200;Laerm;68628;48.714;9.472;2023-04-01T23:31:46;39.75;34.69;49.70;;
79200;Laerm;68628;48.714;9.472;2023-04-01T23:36:47;43.34;37.26;55.36;;
79200;Laerm;68628;48.714;9.472;2023-04-01T23:39:32;42.54;36.96;52.58;;
79200;Laerm;68628;48.714;9.472;2023-04-01T23:42:06;41.86;36.85;51.92;;
79200;Laerm;68628;48.714;9.472;2023-04-01T23:44:35;42.39;34.59;53.67;;
79200;Laerm;68628;48.714;9.472;2023-04-01T23:47:06;39.30;35.56;46.86;;
79200;Laerm;68628;48.714;9.472;2023-04-01T23:49:53;45.93;36.18;59.10;;
79200;Laerm;68628;48.714;9.472;2023-04-01T23:52:26;40.36;34.36;48.80;;
79200;Laerm;68628;48.714;9.472;2023-04-01T23:57:38;41.66;35.61;53.95;;
